Time;durP1;ratioP1;P1;durP2;ratioP2;P2;SDS_P1;SDS_P2;PMS_P1;PMS_P2;Temp;Humidity;BMP_temperature;BMP_pressure;BME280_temperature;BME280_humidity;BME280_pressure;Samples;Min_cycle;Max_cycle;Signal;HPM_P1;HPM_P2
2023/08/21 00:01:01;;;;;;;8.10;3.58;;;;;;;17.66;83.56;102090.25;5089143;28;20367;-78
2023/08/21 00:03:26;;;;;;;8.23;3.50;;;;;;;17.64;83.84;102086.88;5080861;28;20028;-78
2023/08/21 00:05:52;;;;;;;5.55;2.95;;;;;;;17.60;84.00;102085.63;5083493;28;20016;-78
2023/08/21 00:08:18;;;;;;;7.25;3.60;;;;;;;17.52;84.85;102083.97;5082541;28;20040;-78
2023/08/21 00:10:43;;;;;;;6.75;3.55;;;;;;;17.47;85.40;102086.53;5076073;28;20360;-78
2023/08/21 00:13:09;;;;;;;7.38;3.35;;;;;;;17.39;85.44;102085.69;5073307;28;20028;-78
2023/08/21 00:15:35;;;;;;;6.50;3.28;;;;;;;17.33;86.31;102081.09;5073744;28;20035;-78
2023/08/21 00:18:00;;;;;;;7.28;3.63;;;;;;;17.28;86.69;102079.00;5074440;28;20020;-78
2023/08/21 00:20:26;;;;;;;5.07;3.03;;;;;;;17.24;87.24;102077.75;5081705;28;20072;-78
2023/08/21 00:22:52;;;;;;;6.75;3.30;;;;;;;17.20;87.14;102075.69;5084565;28;20646;-78
2023/08/21 00:25:17;;;;;;;4.53;3.10;;;;;;;17.15;87.40;102084.47;5074262;28;21954;-78
2023/08/21 00:27:42;;;;;;;8.55;3.60;;;;;;;17.10;88.42;102076.97;5074558;28;20025;-77
2023/08/21 00:30:08;;;;;;;4.55;3.20;;;;;;;17.07;88.76;102076.53;5083509;28;20372;-78
2023/08/21 00:32:34;;;;;;;4.38;3.10;;;;;;;17.03;89.23;102080.72;5077907;28;20024;-77
2023/08/21 00:34:59;;;;;;;5.90;3.20;;;;;;;17.02;89.50;102081.78;5091635;28;20035;-78
2023/08/21 00:37:25;;;;;;;7.38;3.30;;;;;;;17.04;89.43;102085.94;5073832;28;20465;-78
2023/08/21 00:39:50;;;;;;;8.48;3.90;;;;;;;17.11;90.63;102086.78;5074740;28;20089;-78
2023/08/21 00:42:15;;;;;;;6.80;3.00;;;;;;;17.18;90.22;102094.09;5082538;28;20036;-78
2023/08/21 00:44:41;;;;;;;8.95;3.10;;;;;;;17.21;90.38;102090.97;5071750;28;20016;-78
2023/08/21 00:47:06;;;;;;;4.93;2.67;;;;;;;17.26;90.23;102094.72;5073713;28;20020;-78
2023/08/21 00:49:32;;;;;;;8.25;3.08;;;;;;;17.34;88.92;102088.22;5051941;28;20362;-78
2023/08/21 00:51:58;;;;;;;8.93;3.35;;;;;;;17.35;88.71;102097.22;5054019;28;20040;-78
2023/08/21 00:54:23;;;;;;;6.55;3.03;;;;;;;17.33;89.50;102091.97;5065754;28;20052;-77
2023/08/21 00:56:52;;;;;;;5.80;3.00;;;;;;;17.34;89.18;102088.22;5069609;28;20032;-78
2023/08/21 00:59:17;;;;;;;5.88;3.00;;;;;;;17.36;88.76;102074.41;5083250;28;20031;-78
2023/08/21 01:01:43;;;;;;;5.40;3.17;;;;;;;17.30;89.06;102081.50;5058393;28;20440;-77
2023/08/21 01:04:09;;;;;;;6.10;3.10;;;;;;;17.21;89.23;102082.78;5067402;28;20471;-77
2023/08/21 01:06:34;;;;;;;5.65;3.65;;;;;;;17.11;90.36;102084.06;5077594;28;20016;-78
2023/08/21 01:09:33;;;;;;;5.97;3.20;;;;;;;16.99;91.13;102080.28;5074588;28;20090;-78
2023/08/21 01:12:05;;;;;;;6.75;3.05;;;;;;;16.91;91.49;102088.66;5061391;28;20063;-78
2023/08/21 01:14:59;;;;;;;5.20;2.95;;;;;;;16.80;91.77;102088.22;5084307;28;20063;-78
2023/08/21 01:17:31;;;;;;;9.73;3.05;;;;;;;16.71;91.86;102081.31;5080909;28;20796;-78
2023/08/21 01:19:56;;;;;;;5.70;3.15;;;;;;;16.64;93.02;102083.19;5054002;28;20499;-78
2023/08/21 01:22:35;;;;;;;4.45;3.00;;;;;;;16.55;94.41;102090.69;5085893;28;20035;-78
2023/08/21 01:25:00;;;;;;;6.15;3.22;;;;;;;16.48;94.48;102079.00;5071632;28;20039;-78
2023/08/21 01:27:28;;;;;;;5.68;3.03;;;;;;;16.45;95.27;102096.53;5087023;28;20391;-78
2023/08/21 01:29:54;;;;;;;5.25;3.08;;;;;;;16.43;96.22;102081.47;5065179;28;20032;-77
2023/08/21 01:32:56;;;;;;;7.15;3.35;;;;;;;16.40;96.74;102087.31;5057390;28;20031;-77
2023/08/21 01:35:22;;;;;;;7.43;3.45;;;;;;;16.39;96.89;102086.50;5072077;28;20020;-78
2023/08/21 01:37:47;;;;;;;5.93;3.55;;;;;;;16.39;97.08;102081.06;5061363;28;20067;-77
2023/08/21 01:40:12;;;;;;;6.90;3.15;;;;;;;16.39;97.11;102086.50;5049463;28;20024;-78
2023/08/21 01:42:38;;;;;;;5.60;2.92;;;;;;;16.40;96.96;102082.75;5070891;28;20037;-78
2023/08/21 01:45:09;;;;;;;4.45;2.92;;;;;;;16.41;96.70;102084.41;5081145;28;20024;-78
2023/08/21 01:47:35;;;;;;;3.95;2.80;;;;;;;16.42;97.10;102083.34;5081790;28;20028;-78
2023/08/21 01:50:00;;;;;;;6.53;3.20;;;;;;;16.42;96.71;102086.06;5086040;28;20530;-78
2023/08/21 01:52:26;;;;;;;6.82;3.28;;;;;;;16.40;96.64;102081.88;5086963;28;20387;-78
2023/08/21 01:54:51;;;;;;;6.18;2.90;;;;;;;16.37;96.98;102081.25;5068571;28;20025;-78
2023/08/21 01:57:17;;;;;;;7.60;3.20;;;;;;;16.32;97.93;102081.06;5071993;28;20025;-78
2023/08/21 01:59:42;;;;;;;3.88;2.78;;;;;;;16.28;97.67;102073.50;5072195;28;20033;-78
2023/08/21 02:02:08;;;;;;;6.95;2.90;;;;;;;16.24;97.77;102083.13;5081982;28;20412;-78
2023/08/21 02:04:33;;;;;;;4.07;3.08;;;;;;;16.16;99.24;102076.81;5083886;28;20023;-78
2023/08/21 02:06:58;;;;;;;5.57;3.05;;;;;;;16.13;100.00;102077.22;5075131;28;20021;-78
2023/08/21 02:09:24;;;;;;;5.80;3.30;;;;;;;16.07;100.00;102078.03;5092973;28;20024;-77
2023/08/21 02:11:49;;;;;;;5.00;3.30;;;;;;;16.00;100.00;102079.91;5076139;28;20029;-78
2023/08/21 02:14:15;;;;;;;4.88;2.90;;;;;;;15.93;100.00;102076.31;5082844;28;20032;-77
2023/08/21 02:16:40;;;;;;;5.95;3.17;;;;;;;15.86;100.00;102069.00;5072652;28;20366;-78
2023/08/21 02:19:05;;;;;;;6.05;2.88;;;;;;;15.81;100.00;102074.16;5086781;28;20029;-82
2023/08/21 02:21:31;;;;;;;3.50;2.63;;;;;;;15.78;100.00;102079.97;5084051;28;20452;-82
2023/08/21 02:23:57;;;;;;;5.95;3.15;;;;;;;15.74;100.00;102075.97;5083078;28;20052;-81
2023/08/21 02:26:22;;;;;;;6.85;3.22;;;;;;;15.70;100.00;102077.44;5073550;28;20572;-82
2023/08/21 02:28:48;;;;;;;5.13;3.10;;;;;;;15.67;100.00;102083.28;5089292;28;20036;-81
2023/08/21 02:31:13;;;;;;;5.18;3.15;;;;;;;15.65;100.00;102088.06;5085981;28;20373;-81
2023/08/21 02:33:39;;;;;;;8.43;3.50;;;;;;;15.63;100.00;102085.53;5075525;28;20473;-81
2023/08/21 02:36:04;;;;;;;5.25;3.38;;;;;;;15.64;100.00;102095.34;5079677;28;20103;-81
2023/08/21 02:38:33;;;;;;;8.95;3.50;;;;;;;15.69;100.00;102086.63;5073410;28;20100;-79
2023/08/21 02:40:58;;;;;;;6.03;3.60;;;;;;;15.73;100.00;102083.31;5085924;28;20055;-81
2023/08/21 02:43:24;;;;;;;6.38;3.58;;;;;;;15.79;100.00;102084.38;5087470;28;20032;-81
2023/08/21 02:45:49;;;;;;;6.57;3.60;;;;;;;15.82;100.00;102086.69;5079350;28;20031;-80
2023/08/21 02:48:14;;;;;;;8.63;4.13;;;;;;;15.84;100.00;102079.19;5091138;28;20051;-81
2023/08/21 02:50:41;;;;;;;6.32;3.50;;;;;;;15.81;100.00;102087.72;5073086;28;20453;-80
2023/08/21 02:53:07;;;;;;;6.78;4.30;;;;;;;15.75;100.00;102083.09;5080182;28;20028;-81
2023/08/21 02:55:35;;;;;;;6.47;4.60;;;;;;;15.69;100.00;102078.47;5083068;28;20452;-81
2023/08/21 02:58:00;;;;;;;8.07;4.78;;;;;;;15.63;100.00;102076.56;5092394;28;20109;-81
2023/08/21 03:00:26;;;;;;;6.65;4.28;;;;;;;15.58;100.00;102079.88;5091354;28;20422;-80
2023/08/21 03:02:51;;;;;;;10.88;4.43;;;;;;;15.57;100.00;102076.31;5082662;28;20025;-80
2023/08/21 03:05:17;;;;;;;5.82;4.00;;;;;;;15.57;100.00;102075.50;5079886;28;20024;-80
2023/08/21 03:07:43;;;;;;;6.47;4.20;;;;;;;15.54;100.00;102074.00;5071628;28;20452;-80
2023/08/21 03:10:09;;;;;;;8.43;4.07;;;;;;;15.53;100.00;102077.75;5071489;28;20043;-81
2023/08/21 03:12:34;;;;;;;7.22;4.50;;;;;;;15.52;100.00;102081.53;5078867;28;20020;-82
2023/08/21 03:15:00;;;;;;;7.20;4.50;;;;;;;15.51;100.00;102082.56;5090312;28;20039;-81
2023/08/21 03:17:25;;;;;;;6.78;4.13;;;;;;;15.51;100.00;102079.84;5074946;28;20035;-81
2023/08/21 03:19:50;;;;;;;5.20;4.00;;;;;;;15.51;100.00;102077.13;5068745;28;20041;-81
2023/08/21 03:22:16;;;;;;;6.57;4.78;;;;;;;15.60;100.00;102081.34;5080980;28;20039;-80
2023/08/21 03:24:41;;;;;;;7.03;4.57;;;;;;;15.64;100.00;102083.66;5078585;28;20024;-81
2023/08/21 03:27:07;;;;;;;5.20;4.47;;;;;;;15.69;100.00;102081.19;5096173;28;20039;-81
2023/08/21 03:29:32;;;;;;;7.55;4.25;;;;;;;15.79;100.00;102086.25;5082890;28;20020;-80
2023/08/21 03:31:58;;;;;;;8.30;4.60;;;;;;;15.88;100.00;102085.06;5072696;28;20604;-81
2023/08/21 03:34:23;;;;;;;7.70;4.68;;;;;;;15.96;100.00;102086.75;5081523;28;20468;-81
2023/08/21 03:36:48;;;;;;;7.22;4.72;;;;;;;16.02;99.87;102081.34;5088895;28;20586;-81
2023/08/21 03:39:14;;;;;;;6.32;4.95;;;;;;;16.07;99.27;102086.16;5074100;28;20016;-81
2023/08/21 03:41:40;;;;;;;7.55;4.57;;;;;;;16.12;98.88;102080.97;5075561;28;20024;-82
2023/08/21 03:44:05;;;;;;;6.50;4.55;;;;;;;16.19;98.05;102083.72;5088245;28;20054;-81
2023/08/21 03:46:30;;;;;;;7.10;4.90;;;;;;;16.21;97.30;102078.91;5100006;28;20058;-82
2023/08/21 03:48:56;;;;;;;8.95;5.00;;;;;;;16.17;97.32;102073.06;5096459;28;20360;-81
2023/08/21 03:51:21;;;;;;;8.02;4.95;;;;;;;16.16;97.15;102084.97;5083177;28;20030;-81
2023/08/21 03:53:47;;;;;;;6.93;4.85;;;;;;;16.12;97.62;102086.41;5085824;28;20020;-81
2023/08/21 03:56:15;;;;;;;7.00;5.78;;;;;;;16.08;97.85;102079.69;5083357;28;20028;-82
2023/08/21 03:58:40;;;;;;;7.90;5.25;;;;;;;16.07;97.95;102080.75;5072491;28;20043;-81
2023/08/21 04:01:06;;;;;;;8.68;5.60;;;;;;;16.05;98.21;102074.69;5067664;28;20084;-82
2023/08/21 04:03:33;;;;;;;7.10;5.03;;;;;;;16.01;98.38;102078.84;5083801;28;20024;-82
2023/08/21 04:05:58;;;;;;;10.13;5.80;;;;;;;15.96;98.63;102073.19;5085333;28;20021;-86
2023/08/21 04:08:25;;;;;;;9.52;6.03;;;;;;;15.89;99.08;102074.00;5075169;28;20111;-84
2023/08/21 04:10:54;;;;;;;8.52;6.00;;;;;;;15.83;100.00;102074.78;5067854;28;20133;-81
2023/08/21 04:13:22;;;;;;;10.35;6.45;;;;;;;15.81;100.00;102079.56;5088070;28;20020;-83
2023/08/21 04:15:55;;;;;;;8.35;5.97;;;;;;;15.77;100.00;102087.28;5077007;28;20059;-80
2023/08/21 04:18:21;;;;;;;8.25;6.30;;;;;;;15.74;100.00;102084.97;5077578;28;20031;-80
2023/08/21 04:20:49;;;;;;;7.80;6.88;;;;;;;15.72;100.00;102086.19;5081580;28;20068;-79
2023/08/21 04:23:15;;;;;;;7.88;5.78;;;;;;;15.66;100.00;102079.69;5083583;28;20028;-81
2023/08/21 04:25:46;;;;;;;9.50;6.15;;;;;;;15.59;100.00;102095.94;5078803;28;20052;-81
2023/08/21 04:28:17;;;;;;;8.95;6.15;;;;;;;15.54;100.00;102087.56;5079153;28;20028;-79
2023/08/21 04:30:43;;;;;;;8.90;6.35;;;;;;;15.45;100.00;102091.50;5088419;28;20020;-80
2023/08/21 04:33:08;;;;;;;8.52;6.80;;;;;;;15.38;100.00;102090.59;5090878;28;20525;-80
2023/08/21 04:35:38;;;;;;;11.10;7.10;;;;;;;15.36;100.00;102100.81;5073065;28;20487;-80
2023/08/21 04:38:04;;;;;;;11.13;7.30;;;;;;;15.34;100.00;102100.19;5068917;28;20033;-80
2023/08/21 04:40:29;;;;;;;7.78;6.43;;;;;;;15.35;100.00;102099.16;5075838;28;20064;-80
2023/08/21 04:43:00;;;;;;;8.35;6.80;;;;;;;15.41;100.00;102106.47;5071431;28;20028;-80
2023/08/21 04:45:28;;;;;;;8.75;6.30;;;;;;;15.50;100.00;102107.16;5074769;28;20360;-80
2023/08/21 04:47:54;;;;;;;9.30;6.80;;;;;;;15.58;100.00;102101.59;5086219;28;20046;-80
2023/08/21 04:50:19;;;;;;;8.60;6.07;;;;;;;15.71;100.00;102111.66;5071111;28;20472;-80
2023/08/21 04:52:44;;;;;;;12.80;7.40;;;;;;;15.84;100.00;102111.75;5068211;28;20028;-79
2023/08/21 04:55:11;;;;;;;10.30;6.88;;;;;;;15.97;100.00;102104.75;5080205;28;20028;-79
2023/08/21 04:57:37;;;;;;;9.60;6.97;;;;;;;16.09;100.00;102108.53;5068939;28;20045;-79
2023/08/21 05:00:03;;;;;;;8.52;6.72;;;;;;;16.21;99.88;102100.66;5090319;28;20048;-79
2023/08/21 05:02:31;;;;;;;7.95;6.60;;;;;;;16.31;98.87;102103.84;5091053;28;20501;-79
2023/08/21 05:04:57;;;;;;;9.80;6.88;;;;;;;16.40;98.38;102101.75;5075363;28;20032;-79
2023/08/21 05:07:22;;;;;;;8.27;6.25;;;;;;;16.49;97.80;102108.66;5076418;28;20498;-79
2023/08/21 05:09:48;;;;;;;10.82;6.55;;;;;;;16.58;97.42;102111.22;5069460;28;20079;-79
2023/08/21 05:12:13;;;;;;;9.45;6.50;;;;;;;16.68;96.00;102111.63;5071322;28;20017;-79
2023/08/21 05:14:41;;;;;;;11.82;7.00;;;;;;;16.78;95.79;102112.03;5077824;28;20028;-79
2023/08/21 05:17:07;;;;;;;11.05;6.90;;;;;;;16.91;95.34;102116.66;5071349;28;20361;-79
2023/08/21 05:19:32;;;;;;;9.48;6.50;;;;;;;17.02;94.15;102109.81;5074409;28;20101;-79
2023/08/21 05:21:57;;;;;;;7.82;5.97;;;;;;;17.13;93.35;102120.03;5073638;28;20064;-79
2023/08/21 05:24:32;;;;;;;9.23;6.32;;;;;;;17.25;92.38;102116.72;5073400;28;20028;-79
2023/08/21 05:26:58;;;;;;;9.85;6.15;;;;;;;17.28;92.42;102121.72;5084209;28;20024;-79
2023/08/21 05:29:23;;;;;;;12.57;6.50;;;;;;;17.31;91.57;102123.19;5070719;28;20055;-79
2023/08/21 05:31:49;;;;;;;11.02;6.88;;;;;;;17.26;90.35;102121.09;5085520;28;20024;-79
2023/08/21 05:34:14;;;;;;;10.73;6.50;;;;;;;17.26;90.46;102124.66;5085727;28;20035;-80
2023/08/21 05:36:41;;;;;;;9.35;6.43;;;;;;;17.24;89.99;102121.28;5078440;28;20027;-79
2023/08/21 05:39:07;;;;;;;10.15;6.72;;;;;;;17.26;90.13;102124.66;5081866;28;20487;-79
2023/08/21 05:41:33;;;;;;;11.27;7.55;;;;;;;17.29;90.85;102128.84;5073207;28;20033;-79
2023/08/21 05:43:58;;;;;;;8.98;7.32;;;;;;;17.41;89.38;102121.72;5090263;28;20078;-79
2023/08/21 05:46:24;;;;;;;9.90;7.28;;;;;;;17.58;88.61;102126.72;5083052;28;20024;-79
2023/08/21 05:48:50;;;;;;;9.52;7.20;;;;;;;17.80;88.00;102126.44;5078047;28;20062;-79
2023/08/21 05:51:19;;;;;;;12.32;6.78;;;;;;;18.03;87.31;102137.69;5077825;28;20480;-79
2023/08/21 05:53:44;;;;;;;9.38;6.03;;;;;;;18.26;86.18;102133.63;5079263;28;20024;-79
2023/08/21 05:56:09;;;;;;;10.98;6.53;;;;;;;18.43;84.57;102135.84;5072114;28;20027;-79
2023/08/21 05:58:35;;;;;;;9.60;6.68;;;;;;;18.51;82.90;102135.59;5067578;28;20029;-79
2023/08/21 06:01:03;;;;;;;9.68;6.40;;;;;;;18.54;83.02;102135.13;5061707;28;20043;-79
2023/08/21 06:03:28;;;;;;;9.20;6.30;;;;;;;18.65;82.61;102136.31;5071025;28;20055;-79
2023/08/21 06:05:56;;;;;;;10.88;6.80;;;;;;;18.61;81.99;102135.94;5076643;28;20031;-79
2023/08/21 06:08:22;;;;;;;9.13;6.45;;;;;;;18.64;81.42;102140.09;5073778;28;20025;-79
2023/08/21 06:11:43;;;;;;;9.38;5.90;;;;;;;18.90;79.83;102135.53;5069985;28;20027;-79
2023/08/21 06:14:08;;;;;;;13.88;6.10;;;;;;;19.18;78.53;102135.13;5067548;28;20033;-79
2023/08/21 06:16:34;;;;;;;12.15;6.15;;;;;;;20.05;75.11;102144.34;5082548;28;20027;-80
2023/08/21 06:19:02;;;;;;;9.77;5.45;;;;;;;21.39;70.36;102141.53;5085596;28;20059;-80
2023/08/21 06:21:28;;;;;;;9.40;5.20;;;;;;;22.35;66.62;102144.91;5068116;28;20412;-80
2023/08/21 06:23:53;;;;;;;7.88;5.25;;;;;;;23.24;63.44;102156.38;5071969;28;20032;-80
2023/08/21 06:28:56;;;;;;;10.27;4.88;;;;;;;24.67;56.17;102153.78;5096872;22;20117;-79
2023/08/21 06:31:22;;;;;;;7.97;4.53;;;;;;;25.18;54.86;102151.72;5092604;28;20035;-80
2023/08/21 06:33:47;;;;;;;8.55;4.47;;;;;;;25.93;50.94;102145.31;5093852;28;20020;-80
2023/08/21 06:36:12;;;;;;;6.15;4.03;;;;;;;26.45;49.59;102151.81;5091610;28;20047;-80
2023/08/21 06:38:38;;;;;;;6.45;3.80;;;;;;;26.55;48.81;102148.25;5092288;28;20028;-79
2023/08/21 06:41:03;;;;;;;8.27;3.63;;;;;;;26.80;48.26;102146.66;5092997;28;20043;-79
2023/08/21 06:43:31;;;;;;;7.63;3.83;;;;;;;26.77;48.29;102153.50;5093105;28;20020;-79
2023/08/21 06:45:57;;;;;;;6.53;3.47;;;;;;;26.91;48.12;102156.59;5092090;28;20486;-79
2023/08/21 06:48:23;;;;;;;6.97;3.30;;;;;;;27.17;46.46;102151.88;5093565;28;20028;-79
2023/08/21 06:50:48;;;;;;;5.05;3.00;;;;;;;27.46;46.63;102154.03;5093290;28;20106;-79
2023/08/21 06:53:13;;;;;;;6.95;3.08;;;;;;;28.39;44.03;102163.94;5091695;28;20047;-80
2023/08/21 06:55:39;;;;;;;8.20;3.10;;;;;;;28.89;42.09;102161.06;5093288;28;20028;-80
2023/08/21 06:58:04;;;;;;;7.30;3.10;;;;;;;29.50;41.50;102159.66;5092459;28;20019;-80
2023/08/21 07:00:30;;;;;;;6.38;3.13;;;;;;;29.05;42.15;102164.56;5083216;28;20036;-80
2023/08/21 07:02:55;;;;;;;6.05;3.10;;;;;;;29.29;41.51;102169.31;5093587;28;20020;-80
2023/08/21 07:05:20;;;;;;;4.75;2.80;;;;;;;28.40;42.85;102160.03;5090616;28;20384;-80
2023/08/21 07:07:46;;;;;;;8.25;2.95;;;;;;;28.83;42.92;102157.53;5090833;28;20369;-80
2023/08/21 07:10:12;;;;;;;8.70;2.88;;;;;;;28.56;43.64;102155.22;5093027;28;20024;-80
2023/08/21 07:12:37;;;;;;;7.93;2.95;;;;;;;29.52;41.70;102155.78;5090219;28;20042;-80
2023/08/21 07:15:02;;;;;;;6.70;2.60;;;;;;;29.93;39.68;102163.63;5091892;28;20038;-80
2023/08/21 07:17:28;;;;;;;6.32;2.40;;;;;;;29.60;39.33;102166.25;5093647;28;20032;-79
2023/08/21 07:19:53;;;;;;;5.57;2.30;;;;;;;29.76;40.07;102164.94;5082427;28;20020;-79
2023/08/21 07:22:20;;;;;;;5.93;2.65;;;;;;;28.78;41.62;102159.53;5089147;28;20039;-79
2023/08/21 07:24:45;;;;;;;4.28;2.20;;;;;;;28.31;42.26;102159.81;5110626;28;20024;-78
2023/08/21 07:27:11;;;;;;;5.35;2.22;;;;;;;27.84;43.19;102154.47;5108443;28;20044;-80
2023/08/21 07:29:36;;;;;;;6.68;2.42;;;;;;;27.15;44.61;102158.78;5097044;28;20038;-79
2023/08/21 07:32:01;;;;;;;5.43;1.98;;;;;;;26.68;45.74;102161.50;5094521;28;20027;-79
2023/08/21 07:34:27;;;;;;;7.53;2.00;;;;;;;26.17;46.57;102165.81;5090893;28;20078;-80
2023/08/21 07:36:52;;;;;;;6.03;2.22;;;;;;;25.81;48.53;102165.66;5091106;28;20020;-79
2023/08/21 07:39:18;;;;;;;7.78;2.20;;;;;;;25.54;49.44;102172.16;5092032;28;20035;-79
2023/08/21 07:41:43;;;;;;;4.72;2.17;;;;;;;25.26;50.96;102165.84;5089161;28;20024;-79
2023/08/21 07:44:08;;;;;;;6.32;2.40;;;;;;;25.44;51.01;102163.78;5090737;28;20023;-80
2023/08/21 07:46:34;;;;;;;7.63;2.38;;;;;;;25.59;50.37;102168.59;5091469;28;20020;-80
2023/08/21 07:48:59;;;;;;;4.85;2.45;;;;;;;25.98;49.46;102164.63;5090265;28;20028;-79
2023/08/21 07:51:25;;;;;;;5.40;2.15;;;;;;;26.28;48.79;102158.41;5090921;28;20020;-79
2023/08/21 07:53:50;;;;;;;8.43;2.15;;;;;;;26.47;47.70;102158.75;5091349;28;20028;-79
2023/08/21 07:56:15;;;;;;;3.72;2.17;;;;;;;26.44;47.79;102161.19;5089018;28;20525;-78
2023/08/21 07:58:41;;;;;;;7.55;2.40;;;;;;;26.62;47.86;102157.09;5090735;28;20050;-79
2023/08/21 08:01:06;;;;;;;5.28;2.17;;;;;;;26.54;48.24;102165.91;5090480;28;20032;-80
2023/08/21 08:03:32;;;;;;;4.90;1.95;;;;;;;26.73;47.61;102157.94;5091221;28;20020;-79
2023/08/21 08:05:57;;;;;;;10.38;2.38;;;;;;;26.57;47.04;102166.19;5090517;28;20032;-80
2023/08/21 08:08:23;;;;;;;5.07;1.85;;;;;;;26.64;47.15;102166.75;5090886;28;20024;-79
2023/08/21 08:10:48;;;;;;;5.60;2.05;;;;;;;27.43;45.57;102171.19;5090999;28;20027;-79
2023/08/21 08:13:14;;;;;;;5.13;1.83;;;;;;;27.42;45.07;102171.44;5091239;28;20036;-79
2023/08/21 08:15:40;;;;;;;5.90;2.15;;;;;;;27.44;44.70;102172.00;5089714;28;20043;-79
2023/08/21 08:18:07;;;;;;;5.28;1.90;;;;;;;27.31;45.21;102167.88;5091666;28;20031;-80
2023/08/21 08:20:32;;;;;;;6.88;1.85;;;;;;;27.62;44.61;102173.38;5055643;28;20138;-80
2023/08/21 08:22:58;;;;;;;5.47;2.00;;;;;;;26.94;46.54;102170.66;5090042;28;20483;-80
2023/08/21 08:25:23;;;;;;;7.22;1.90;;;;;;;26.81;46.76;102173.16;5091337;28;20032;-79
2023/08/21 08:27:48;;;;;;;6.80;1.88;;;;;;;26.43;48.19;102173.34;5082024;28;20036;-79
2023/08/21 08:30:14;;;;;;;3.88;1.70;;;;;;;26.49;48.24;102170.31;5089089;28;20383;-80
2023/08/21 08:32:44;;;;;;;5.53;1.70;;;;;;;26.53;48.30;102175.31;5091931;28;20043;-80
2023/08/21 08:35:10;;;;;;;4.90;1.70;;;;;;;26.26;48.64;102176.34;5090653;28;20089;-80
2023/08/21 08:37:35;;;;;;;4.15;1.77;;;;;;;26.34;48.64;102175.81;5089783;28;20481;-79
2023/08/21 08:40:00;;;;;;;6.65;1.60;;;;;;;27.31;47.10;102177.00;5091276;28;20468;-79
2023/08/21 08:42:26;;;;;;;5.55;2.00;;;;;;;27.36;46.32;102170.63;5090885;28;20028;-80
2023/08/21 08:44:51;;;;;;;5.00;1.70;;;;;;;27.44;46.57;102180.31;5088785;28;20037;-79
2023/08/21 08:47:16;;;;;;;6.57;1.92;;;;;;;26.31;48.41;102184.63;5056297;28;20033;-79
2023/08/21 08:49:42;;;;;;;6.28;1.70;;;;;;;26.23;49.35;102176.91;5090357;28;20032;-79
2023/08/21 08:52:07;;;;;;;8.40;2.10;;;;;;;26.48;48.48;102179.69;5090041;28;20028;-79
2023/08/21 08:54:35;;;;;;;5.53;1.90;;;;;;;26.28;49.14;102177.72;5095701;28;20032;-79
2023/08/21 08:57:00;;;;;;;4.32;1.80;;;;;;;25.86;49.25;102175.88;5094105;28;20535;-78
2023/08/21 08:59:26;;;;;;;4.55;1.60;;;;;;;25.57;51.69;102176.28;5093728;28;20032;-79
2023/08/21 09:01:51;;;;;;;6.82;1.88;;;;;;;25.89;50.33;102172.59;5094194;28;20028;-79
2023/08/21 09:04:17;;;;;;;4.40;1.88;;;;;;;25.50;50.96;102186.75;5093838;28;20024;-79
2023/08/21 09:06:42;;;;;;;5.88;2.00;;;;;;;25.71;49.60;102182.16;5092925;28;20468;-80
2023/08/21 09:09:10;;;;;;;4.07;1.80;;;;;;;26.39;48.43;102180.50;5087205;28;20073;-80
2023/08/21 09:11:36;;;;;;;6.07;1.90;;;;;;;27.21;47.67;102186.16;5094013;28;20035;-80
2023/08/21 09:14:01;;;;;;;6.05;2.00;;;;;;;28.43;43.87;102178.84;5092694;28;20036;-81
2023/08/21 09:16:29;;;;;;;4.78;1.65;;;;;;;29.74;40.94;102172.72;5076099;28;20031;-80
2023/08/21 09:18:56;;;;;;;6.13;2.03;;;;;;;30.51;39.02;102178.41;5084752;28;20406;-80
2023/08/21 09:21:23;;;;;;;6.97;2.25;;;;;;;29.08;41.06;102180.59;5094222;28;20047;-80
2023/08/21 09:23:56;;;;;;;6.28;1.80;;;;;;;28.73;42.67;102174.22;5094798;28;20085;-81
2023/08/21 09:26:22;;;;;;;5.25;1.80;;;;;;;28.67;42.33;102181.75;5076205;28;20035;-80
2023/08/21 09:28:51;;;;;;;6.15;2.08;;;;;;;29.09;41.76;102187.81;5093505;28;20396;-80
2023/08/21 09:31:31;;;;;;;5.35;1.50;;;;;;;29.15;40.25;102189.41;5093343;28;20024;-80
2023/08/21 09:34:05;;;;;;;5.03;1.40;;;;;;;29.45;39.55;102181.94;5092845;28;20543;-81
2023/08/21 09:36:31;;;;;;;5.32;1.67;;;;;;;29.43;38.77;102175.84;5087000;28;20354;-81
2023/08/21 09:38:57;;;;;;;8.18;1.80;;;;;;;29.72;38.55;102182.47;5094496;28;20044;-80
2023/08/21 09:41:23;;;;;;;5.45;1.55;;;;;;;30.09;37.90;102170.63;5092630;28;20416;-80
2023/08/21 09:43:48;;;;;;;4.95;1.88;;;;;;;30.92;37.77;102168.59;5093249;28;20464;-80
2023/08/21 09:46:16;;;;;;;5.13;1.60;;;;;;;32.69;34.15;102172.25;5092830;28;20368;-81
2023/08/21 09:48:41;;;;;;;5.50;1.50;;;;;;;33.90;32.24;102175.16;5074658;28;20054;-80
2023/08/21 09:51:07;;;;;;;3.72;1.30;;;;;;;33.96;31.56;102169.09;5093621;28;20028;-81
2023/08/21 09:53:32;;;;;;;7.32;1.50;;;;;;;33.15;31.78;102161.88;5090534;28;20123;-81
2023/08/21 09:55:57;;;;;;;5.32;1.38;;;;;;;32.61;31.70;102160.69;5070265;28;20365;-81
2023/08/21 09:58:23;;;;;;;4.63;1.67;;;;;;;32.25;33.04;102158.72;5092584;28;20042;-81
2023/08/21 10:00:49;;;;;;;5.00;1.55;;;;;;;32.28;32.65;102162.91;5056016;28;20024;-81
2023/08/21 10:03:20;;;;;;;5.15;1.50;;;;;;;33.63;30.80;102177.88;5088463;28;20028;-81
2023/08/21 10:05:45;;;;;;;5.10;1.33;;;;;;;33.78;29.59;102172.97;5092608;28;20055;-81
2023/08/21 10:08:20;;;;;;;7.25;1.50;;;;;;;33.94;29.57;102159.41;5075241;28;20512;-81
2023/08/21 10:10:46;;;;;;;3.67;1.40;;;;;;;34.13;30.13;102159.09;5059341;28;20062;-80
2023/08/21 10:13:11;;;;;;;3.38;1.25;;;;;;;34.80;29.49;102162.53;5093618;28;20040;-81
2023/08/21 10:15:37;;;;;;;4.00;1.52;;;;;;;35.11;28.94;102157.88;5093103;28;20042;-81
2023/08/21 10:18:19;;;;;;;6.75;1.60;;;;;;;33.63;30.27;102155.53;5058566;28;20452;-81
2023/08/21 10:20:45;;;;;;;3.03;1.27;;;;;;;33.60;31.44;102153.38;5092020;28;20039;-81
2023/08/21 10:23:10;;;;;;;4.65;1.42;;;;;;;35.03;29.31;102149.19;5093033;28;20028;-81
2023/08/21 10:25:41;;;;;;;5.30;1.50;;;;;;;35.89;28.41;102156.69;5058303;28;20578;-81
2023/08/21 10:28:07;;;;;;;4.22;1.33;;;;;;;35.62;27.72;102158.00;5092970;28;20040;-81
2023/08/21 10:30:32;;;;;;;6.18;1.75;;;;;;;35.37;27.51;102146.56;5084440;28;20032;-81
2023/08/21 10:32:58;;;;;;;4.65;1.85;;;;;;;34.39;29.58;102141.50;5092417;28;20024;-81
2023/08/21 10:35:31;;;;;;;5.63;1.63;;;;;;;34.56;29.77;102147.13;5091652;28;20093;-81
2023/08/21 10:38:16;;;;;;;5.22;1.45;;;;;;;34.35;29.11;102143.31;5084658;28;20502;-81
2023/08/21 10:41:05;;;;;;;5.93;1.67;;;;;;;33.99;30.36;102136.88;5093152;28;20119;-81
2023/08/21 10:43:56;;;;;;;5.80;1.70;;;;;;;33.99;30.78;102143.31;5092422;28;20043;-81
2023/08/21 10:46:22;;;;;;;4.68;1.70;;;;;;;34.37;30.23;102143.81;5082025;28;20028;-81
2023/08/21 10:48:48;;;;;;;4.85;1.70;;;;;;;34.71;30.52;102142.16;5089275;28;20035;-81
2023/08/21 10:51:13;;;;;;;5.03;1.70;;;;;;;35.83;28.18;102140.41;5091637;28;20028;-81
2023/08/21 10:53:41;;;;;;;5.32;1.50;;;;;;;35.47;28.76;102146.22;5093443;28;20032;-81
2023/08/21 10:56:06;;;;;;;4.50;1.73;;;;;;;35.69;28.78;102146.25;5092259;28;20081;-81
2023/08/21 10:58:39;;;;;;;4.80;1.67;;;;;;;34.64;29.75;102139.88;5083628;28;20028;-81
2023/08/21 11:01:16;;;;;;;4.07;1.70;;;;;;;33.99;30.21;102136.88;5068217;28;20069;-82
2023/08/21 11:03:46;;;;;;;4.95;1.67;;;;;;;34.00;30.56;102135.75;5091089;28;20034;-81
2023/08/21 11:06:11;;;;;;;4.82;1.50;;;;;;;34.64;29.36;102137.06;5091720;28;20122;-81
2023/08/21 11:08:37;;;;;;;5.63;1.60;;;;;;;34.03;30.64;102139.88;5093441;28;20032;-81
2023/08/21 11:11:03;;;;;;;5.80;1.60;;;;;;;34.61;29.47;102132.94;5091485;28;20388;-81
2023/08/21 11:13:29;;;;;;;5.70;1.75;;;;;;;34.36;29.67;102136.56;5090827;28;20143;-81
2023/08/21 11:16:02;;;;;;;4.82;1.73;;;;;;;34.67;29.81;102141.16;5090341;28;20027;-81
2023/08/21 11:18:35;;;;;;;5.23;1.97;;;;;;;35.91;28.23;102145.94;5085073;28;20035;-82
2023/08/21 11:21:08;;;;;;;4.90;1.83;;;;;;;36.55;26.94;102155.19;5090310;28;20470;-81
2023/08/21 11:23:34;;;;;;;7.23;1.80;;;;;;;34.52;29.37;102148.94;5075431;28;20050;-81